Molunkus Township, Maine
Current Conditions -  °F | °C
As of 12:53 AM on Friday 31 Oct 2014 (Local Time) from KMLT Reporting Station
Scattered Clouds Scattered Clouds  
Wind Chill: 34°   Ceiling: Unl
Heat Index: 34°   Visibility: 10mi
Dew Point: 31°   Wind: 0mph
Humidity: 89%   Direction: NA
Pressure: 29.98"   Gusts: NA
Location:  45.574°N, 68.322°W
Report Text: KMLT 310453Z AUTO 00000KT 10SM SCT055 01/M01 A2998 RMK AO2 SLP159 T00111006 401220011
Loading
Personal Weather Stations






























Interactive Weather Map
Tropical Storm Tracking
New forecast layout! Learn more

10-Day Weather Forecast

Advertisements
Track Severe Weather on mobile